createdAt,value
2018-09-10T00:00:16.713Z,942
2018-09-10T00:01:16.634Z,942.2
2018-09-10T00:02:16.775Z,942.2
2018-09-10T00:03:16.705Z,942.2
2018-09-10T00:04:19.797Z,941.8
2018-09-10T00:05:19.760Z,942.3
2018-09-10T00:06:20.182Z,942.3
2018-09-10T00:07:32.195Z,942.2
2018-09-10T00:08:33.113Z,941.8
2018-09-10T00:09:34.030Z,942.2
2018-09-10T00:10:33.958Z,942
2018-09-10T00:11:40.421Z,941.8
2018-09-10T00:12:40.336Z,941.9
2018-09-10T00:13:40.261Z,942.2
2018-09-10T00:14:43.892Z,942.2
2018-09-10T00:15:43.876Z,942.3
2018-09-10T00:16:43.781Z,942.3
2018-09-10T00:17:44.351Z,942.1
2018-09-10T00:18:44.471Z,942.3
2018-09-10T00:19:44.388Z,940
2018-09-10T00:20:44.293Z,939
2018-09-10T00:21:48.869Z,942.2
2018-09-10T00:22:48.766Z,942.2
2018-09-10T00:23:48.668Z,942.2
2018-09-10T00:24:49.259Z,942.1
2018-09-10T00:25:49.166Z,942.2
2018-09-10T00:26:49.760Z,941.3
2018-09-10T00:27:50.334Z,942.2
2018-09-10T00:28:50.239Z,942.2
2018-09-10T00:29:51.187Z,942.2
2018-09-10T00:30:51.092Z,942.2
2018-09-10T00:31:51.044Z,942.2
2018-09-10T00:32:51.170Z,942.3
2018-09-10T00:33:51.300Z,942.2
2018-09-10T00:34:51.214Z,942.3
2018-09-10T00:35:51.336Z,941.9
2018-09-10T00:36:51.272Z,942.2
2018-09-10T00:37:51.850Z,942.3
2018-09-10T00:38:51.766Z,942.2
2018-09-10T00:40:00.736Z,942.3
2018-09-10T00:41:00.869Z,942.4
2018-09-10T00:42:00.806Z,941.9
2018-09-10T00:43:09.644Z,942.3
2018-09-10T00:44:10.547Z,942.2
2018-09-10T00:45:13.421Z,941.8
2018-09-10T00:46:16.059Z,942.2
2018-09-10T00:47:16.203Z,942.3
2018-09-10T00:48:22.990Z,942.3
2018-09-10T00:49:26.497Z,942.3
2018-09-10T00:50:26.403Z,942.2
2018-09-10T00:51:26.571Z,941.9
2018-09-10T00:52:26.530Z,942.3
2018-09-10T00:53:29.077Z,942.3
2018-09-10T00:54:28.982Z,942.3
2018-09-10T00:55:28.893Z,942.3
2018-09-10T00:56:29.456Z,942.3
2018-09-10T00:57:29.382Z,942.3
2018-09-10T00:58:33.288Z,942.2
2018-09-10T00:59:33.191Z,940.7
2018-09-10T01:00:33.127Z,942.3
2018-09-10T01:01:33.075Z,942.3
2018-09-10T01:02:33.025Z,942.2
2018-09-10T01:03:32.941Z,942.2
2018-09-10T01:04:37.861Z,942.3
2018-09-10T01:05:37.764Z,942.3
2018-09-10T01:06:37.921Z,942.3
2018-09-10T01:07:37.865Z,942.3
2018-09-10T01:08:38.489Z,942.2
2018-09-10T01:09:38.402Z,942.3
2018-09-10T01:10:38.302Z,942.3
2018-09-10T01:11:38.289Z,942.3
2018-09-10T01:12:38.225Z,942.3
2018-09-10T01:13:38.408Z,942.2
2018-09-10T01:14:38.310Z,937.8
2018-09-10T01:15:39.224Z,941.7
2018-09-10T01:16:45.081Z,941.7
2018-09-10T01:17:45.009Z,942.2
2018-09-10T01:18:45.383Z,941.8
2018-09-10T01:19:49.063Z,942.2
2018-09-10T01:20:48.964Z,942.2
2018-09-10T01:21:48.867Z,942.1
2018-09-10T01:22:49.019Z,942.1
2018-09-10T01:23:48.929Z,942.2
2018-09-10T01:24:49.842Z,941.7
2018-09-10T01:25:49.766Z,942.2
2018-09-10T01:26:50.700Z,942.1
2018-09-10T01:27:50.630Z,942.2
2018-09-10T01:28:53.672Z,942.2
2018-09-10T01:29:53.588Z,942.1
2018-09-10T01:30:53.495Z,942.2
2018-09-10T01:31:53.401Z,942.2
2018-09-10T01:32:53.589Z,942.1
2018-09-10T01:33:53.513Z,942.1
2018-09-10T01:34:57.015Z,942.1
2018-09-10T01:35:56.923Z,942.2
2018-09-10T01:36:59.538Z,942.1
2018-09-10T01:38:00.473Z,941.7
2018-09-10T01:39:03.656Z,941.7
2018-09-10T01:40:03.583Z,941.7
2018-09-10T01:41:07.322Z,942.1
2018-09-10T01:42:07.243Z,942.1
2018-09-10T01:43:07.175Z,942.1
2018-09-10T01:44:07.083Z,939.8
2018-09-10T01:45:06.978Z,942.1
2018-09-10T01:46:09.482Z,942.1
2018-09-10T01:47:09.382Z,942.1
2018-09-10T01:48:09.365Z,942.1
2018-09-10T01:49:15.095Z,942.1
2018-09-10T01:50:16.001Z,942
2018-09-10T01:51:15.934Z,937.9
2018-09-10T01:52:15.860Z,942
2018-09-10T01:53:15.800Z,941.9
2018-09-10T01:54:21.627Z,942
2018-09-10T01:55:21.541Z,942
2018-09-10T01:56:24.109Z,942
2018-09-10T01:57:24.010Z,942
2018-09-10T01:58:24.609Z,942
2018-09-10T01:59:24.966Z,942
2018-09-10T02:00:24.917Z,942
2018-09-10T02:01:24.844Z,941.9
2018-09-10T02:02:28.556Z,942
2018-09-10T02:03:28.748Z,941.9
2018-09-10T02:04:28.651Z,942
2018-09-10T02:05:28.561Z,941.9
2018-09-10T02:06:28.687Z,942
2018-09-10T02:07:28.596Z,941.9
2018-09-10T02:08:28.575Z,941.9
2018-09-10T02:09:31.917Z,941.6
2018-09-10T02:10:38.638Z,942
2018-09-10T02:11:38.539Z,941.9
2018-09-10T02:12:38.692Z,941.5
2018-09-10T02:13:38.598Z,941.5
2018-09-10T02:14:39.722Z,942
2018-09-10T02:15:39.642Z,941.9
2018-09-10T02:16:48.586Z,941.9
2018-09-10T02:17:48.497Z,941.9
2018-09-10T02:18:48.868Z,941.4
2018-09-10T02:19:49.345Z,941.5
2018-09-10T02:20:49.481Z,941.8
2018-09-10T02:21:49.396Z,941.8
2018-09-10T02:22:49.547Z,941.8
2018-09-10T02:23:49.492Z,941.7
2018-09-10T02:24:52.379Z,941.7
2018-09-10T02:25:52.526Z,941.8
2018-09-10T02:26:52.415Z,941.8
2018-09-10T02:27:58.165Z,941.7
2018-09-10T02:28:58.094Z,941.8
2018-09-10T02:30:04.280Z,941.8
2018-09-10T02:31:04.230Z,941
2018-09-10T02:32:04.153Z,941.8
2018-09-10T02:33:08.298Z,941.8
2018-09-10T02:34:08.237Z,938.4
2018-09-10T02:35:12.017Z,941.8
2018-09-10T02:36:11.988Z,941.8
2018-09-10T02:37:11.925Z,941.8
2018-09-10T02:38:11.861Z,941.7
2018-09-10T02:39:11.805Z,941.8
2018-09-10T02:40:12.428Z,941.8
2018-09-10T02:41:12.359Z,941.8
2018-09-10T02:42:12.343Z,941.8
2018-09-10T02:43:12.249Z,941.7
2018-09-10T02:44:12.179Z,941.4
2018-09-10T02:45:16.192Z,941.7
2018-09-10T02:46:16.118Z,941.8
2018-09-10T02:47:16.018Z,940.7
2018-09-10T02:48:19.674Z,941.8
2018-09-10T02:49:19.628Z,941.7
2018-09-10T02:50:20.209Z,941.4
2018-09-10T02:51:20.129Z,941.2
2018-09-10T02:52:22.801Z,937.5
2018-09-10T02:53:25.527Z,941.8
2018-09-10T02:54:26.139Z,941.7
2018-09-10T02:55:26.042Z,941.7
2018-09-10T02:56:29.149Z,941.7
2018-09-10T02:57:29.081Z,941.7
2018-09-10T02:58:29.307Z,937.3
2018-09-10T02:59:29.242Z,941.7
2018-09-10T03:00:29.672Z,941.7
2018-09-10T03:01:29.839Z,941.7
2018-09-10T03:02:29.770Z,941.8
2018-09-10T03:03:29.956Z,941.7
2018-09-10T03:04:29.915Z,941.7
2018-09-10T03:05:30.860Z,941.8
2018-09-10T03:06:30.787Z,941.7
2018-09-10T03:07:34.429Z,941.3
2018-09-10T03:08:34.342Z,941.7
2018-09-10T03:09:34.328Z,941.7
2018-09-10T03:10:35.730Z,941.7
2018-09-10T03:11:38.496Z,941.7
2018-09-10T03:12:38.422Z,941.7
2018-09-10T03:13:38.327Z,941.7
2018-09-10T03:14:42.178Z,941.7
2018-09-10T03:15:42.098Z,941.2
2018-09-10T03:16:42.059Z,941.7
2018-09-10T03:17:41.970Z,941.7
2018-09-10T03:18:42.121Z,941.3
2018-09-10T03:19:42.081Z,941.8
2018-09-10T03:20:42.480Z,941.7
2018-09-10T03:21:42.426Z,941.7
2018-09-10T03:22:45.230Z,937.5
2018-09-10T03:23:46.157Z,941.6
2018-09-10T03:24:49.736Z,941.6
2018-09-10T03:25:49.647Z,941.3
2018-09-10T03:27:01.358Z,941.7
2018-09-10T03:28:01.279Z,941.8
2018-09-10T03:29:01.218Z,941.7
2018-09-10T03:30:01.226Z,941.7
2018-09-10T03:31:01.662Z,941.7
2018-09-10T03:32:01.624Z,941.8
2018-09-10T03:33:01.541Z,941.9
2018-09-10T03:34:01.481Z,941.8
2018-09-10T03:35:01.431Z,941.8
2018-09-10T03:36:04.412Z,941.9
2018-09-10T03:37:08.121Z,941.8
2018-09-10T03:38:08.032Z,941.8
2018-09-10T03:39:10.714Z,941.4
2018-09-10T03:40:13.208Z,941.8
2018-09-10T03:41:13.579Z,941.8
2018-09-10T03:42:13.507Z,941.4
2018-09-10T03:43:16.604Z,941.8
2018-09-10T03:44:16.822Z,941.7
2018-09-10T03:45:17.769Z,941.8
2018-09-10T03:46:18.688Z,941.8
2018-09-10T03:47:22.112Z,941.3
2018-09-10T03:48:22.085Z,941.7
2018-09-10T03:49:22.005Z,941.7
2018-09-10T03:50:22.167Z,941.3
2018-09-10T03:51:22.516Z,941.7
2018-09-10T03:52:22.500Z,941.8
2018-09-10T03:53:22.413Z,941.7
2018-09-10T03:54:22.344Z,941.8
2018-09-10T03:55:22.300Z,941.7
2018-09-10T03:56:22.462Z,941.7
2018-09-10T03:57:22.385Z,941.8
2018-09-10T03:58:22.549Z,941.7
2018-09-10T03:59:22.484Z,941.9
2018-09-10T04:00:24.402Z,941.7
2018-09-10T04:01:24.839Z,941.8
2018-09-10T04:02:24.750Z,941.8
2018-09-10T04:03:24.663Z,941.7
2018-09-10T04:04:24.616Z,941.4
2018-09-10T04:05:24.523Z,941.8
2018-09-10T04:06:24.484Z,941.8
2018-09-10T04:07:24.435Z,941.4
2018-09-10T04:08:24.352Z,941.6
2018-09-10T04:09:24.284Z,941.8
2018-09-10T04:10:25.176Z,937.3
2018-09-10T04:11:25.784Z,941.4
2018-09-10T04:12:25.706Z,941.8
2018-09-10T04:13:25.649Z,941.8
2018-09-10T04:14:25.841Z,941.9
2018-09-10T04:15:25.742Z,941.8
2018-09-10T04:16:25.682Z,941.9
2018-09-10T04:17:25.637Z,941.8
2018-09-10T04:18:25.561Z,941.9
2018-09-10T04:19:25.732Z,941.5
2018-09-10T04:20:25.647Z,941.5
2018-09-10T04:21:25.998Z,941.9
2018-09-10T04:22:25.923Z,942
2018-09-10T04:23:25.898Z,942
2018-09-10T04:24:25.828Z,942
2018-09-10T04:25:26.735Z,942
2018-09-10T04:26:26.892Z,942
2018-09-10T04:27:26.880Z,942.1
2018-09-10T04:28:26.849Z,942.1
2018-09-10T04:29:29.587Z,942.1
2018-09-10T04:30:32.069Z,937.5
2018-09-10T04:31:32.459Z,942.1
2018-09-10T04:32:39.139Z,941.7
2018-09-10T04:33:47.786Z,942.2
2018-09-10T04:34:47.687Z,942.1
2018-09-10T04:35:47.633Z,942.1
2018-09-10T04:36:47.812Z,942.2
2018-09-10T04:37:47.761Z,942.3
2018-09-10T04:38:48.117Z,942.2
2018-09-10T04:39:48.023Z,942.2
2018-09-10T04:40:47.976Z,942.2
2018-09-10T04:41:48.574Z,942.2
2018-09-10T04:42:48.534Z,940.3
2018-09-10T04:43:48.458Z,942.3
2018-09-10T04:44:49.396Z,942.2
2018-09-10T04:45:49.340Z,942.3
2018-09-10T04:46:52.497Z,942.2
2018-09-10T04:47:52.486Z,942.3
2018-09-10T04:48:53.411Z,942.2
2018-09-10T04:49:54.229Z,942.3
2018-09-10T04:50:54.148Z,942.3
2018-09-10T04:51:55.512Z,942.3
2018-09-10T04:52:55.489Z,942.3
2018-09-10T04:53:55.396Z,942.3
2018-09-10T04:54:55.321Z,942.3
2018-09-10T04:55:56.256Z,942.3
2018-09-10T04:56:56.166Z,942.3
2018-09-10T04:57:59.879Z,940.8
2018-09-10T04:58:59.832Z,942.3
2018-09-10T04:59:59.740Z,942.4
2018-09-10T05:00:59.724Z,942.4
2018-09-10T05:02:00.209Z,942.4
2018-09-10T05:03:02.821Z,942.4
2018-09-10T05:04:02.772Z,942.4
2018-09-10T05:05:02.704Z,941.7
2018-09-10T05:06:02.649Z,942.4
2018-09-10T05:07:02.573Z,942.5
2018-09-10T05:08:02.720Z,942.1
2018-09-10T05:09:02.721Z,942.6
2018-09-10T05:10:03.280Z,942.6
2018-09-10T05:11:03.333Z,942.5
2018-09-10T05:12:03.760Z,942.5
2018-09-10T05:13:03.903Z,942
2018-09-10T05:14:03.801Z,942
2018-09-10T05:15:03.774Z,942.6
2018-09-10T05:16:03.728Z,942.6
2018-09-10T05:17:03.650Z,942.6
2018-09-10T05:18:03.548Z,942.6
2018-09-10T05:19:03.465Z,942.6
2018-09-10T05:20:03.408Z,942.7
2018-09-10T05:21:03.396Z,942.6
2018-09-10T05:22:04.619Z,942.7
2018-09-10T05:23:04.837Z,942.6
2018-09-10T05:24:04.738Z,942.6
2018-09-10T05:25:04.679Z,942.2
2018-09-10T05:26:04.656Z,942.7
2018-09-10T05:27:04.586Z,942.7
2018-09-10T05:28:04.906Z,942.7
2018-09-10T05:29:04.856Z,942.7
2018-09-10T05:30:04.797Z,942.7
2018-09-10T05:31:04.727Z,942.7
2018-09-10T05:32:05.129Z,942.7
2018-09-10T05:33:05.076Z,942.7
2018-09-10T05:34:05.014Z,942.7
2018-09-10T05:35:04.942Z,942.7
2018-09-10T05:36:04.862Z,942.2
2018-09-10T05:37:05.006Z,942.6
2018-09-10T05:38:04.944Z,942.7
2018-09-10T05:39:05.112Z,942.7
2018-09-10T05:40:05.054Z,942.7
2018-09-10T05:41:04.974Z,942.7
2018-09-10T05:42:05.689Z,942.6
2018-09-10T05:43:05.617Z,942.7
2018-09-10T05:44:05.548Z,942.7
2018-09-10T05:45:05.535Z,942.3
2018-09-10T05:46:05.436Z,942.3
2018-09-10T05:47:05.379Z,942.7
2018-09-10T05:48:05.331Z,942.8
2018-09-10T05:49:05.262Z,942.4
2018-09-10T05:50:05.171Z,942.8
2018-09-10T05:51:05.089Z,942.8
2018-09-10T05:52:06.450Z,942.8
2018-09-10T05:53:06.596Z,942.7
2018-09-10T05:54:06.528Z,942.4
2018-09-10T05:55:06.454Z,942.7
2018-09-10T05:56:06.380Z,942.7
2018-09-10T05:57:06.329Z,942.3
2018-09-10T05:58:06.270Z,942.7
2018-09-10T05:59:06.217Z,942.7
2018-09-10T06:00:06.129Z,942.7
2018-09-10T06:01:06.055Z,942.4
2018-09-10T06:02:06.447Z,942.8
2018-09-10T06:03:06.353Z,942.7
2018-09-10T06:04:06.276Z,942.3
2018-09-10T06:05:06.206Z,942.8
2018-09-10T06:06:06.116Z,942.7
2018-09-10T06:07:06.043Z,942.7
2018-09-10T06:08:05.985Z,942.7
2018-09-10T06:09:05.886Z,942.8
2018-09-10T06:10:05.830Z,942.8
2018-09-10T06:11:05.756Z,942.7
2018-09-10T06:12:06.373Z,942.8
2018-09-10T06:13:06.272Z,942.8
2018-09-10T06:14:06.221Z,942.7
2018-09-10T06:15:06.155Z,942.4
2018-09-10T06:16:06.060Z,942.5
2018-09-10T06:17:05.962Z,942.5
2018-09-10T06:18:05.890Z,942.9
2018-09-10T06:19:05.794Z,942.9
2018-09-10T06:20:05.721Z,942.9
2018-09-10T06:21:05.652Z,942.9
2018-09-10T06:22:06.016Z,942.9
2018-09-10T06:23:05.920Z,942.8
2018-09-10T06:24:05.844Z,942.8
2018-09-10T06:25:05.748Z,942.8
2018-09-10T06:26:05.731Z,939
2018-09-10T06:27:05.698Z,942.9
2018-09-10T06:28:05.603Z,942.8
2018-09-10T06:29:05.519Z,942.8
2018-09-10T06:30:05.456Z,942.7
2018-09-10T06:31:05.382Z,942.9
2018-09-10T06:32:05.744Z,942.8
2018-09-10T06:33:05.674Z,942.8
2018-09-10T06:34:05.892Z,942.5
2018-09-10T06:35:05.820Z,942.7
2018-09-10T06:36:06.030Z,942.8
2018-09-10T06:37:06.372Z,942.8
2018-09-10T06:38:06.335Z,942.9
2018-09-10T06:39:06.235Z,942.9
2018-09-10T06:40:06.139Z,942.9
2018-09-10T06:41:06.097Z,943
2018-09-10T06:42:06.474Z,942.9
2018-09-10T06:43:06.369Z,943
2018-09-10T06:44:09.028Z,939.5
2018-09-10T06:45:08.967Z,943
2018-09-10T06:46:08.898Z,943
2018-09-10T06:47:08.857Z,943
2018-09-10T06:48:08.780Z,943
2018-09-10T06:49:08.687Z,943.1
2018-09-10T06:50:08.581Z,943
2018-09-10T06:51:08.516Z,943.1
2018-09-10T06:52:08.902Z,943.1
2018-09-10T06:53:08.821Z,943.1
2018-09-10T06:54:08.727Z,943.1
2018-09-10T06:55:08.651Z,943.2
2018-09-10T06:56:09.591Z,943.2
2018-09-10T06:57:09.494Z,943.2
2018-09-10T06:58:09.440Z,943.2
2018-09-10T06:59:09.346Z,943.2
2018-09-10T07:00:09.698Z,942.9
2018-09-10T07:01:09.644Z,942.9
2018-09-10T07:02:11.040Z,943.2
2018-09-10T07:03:10.957Z,943.3
2018-09-10T07:04:10.877Z,943.2
2018-09-10T07:05:11.033Z,943.2
2018-09-10T07:06:10.986Z,943.3
2018-09-10T07:07:10.895Z,943.2
2018-09-10T07:08:14.551Z,943.2
2018-09-10T07:09:14.453Z,943.2
2018-09-10T07:10:14.383Z,943.2
2018-09-10T07:11:14.305Z,943.2
2018-09-10T07:12:14.674Z,943.2
2018-09-10T07:13:15.355Z,943.2
2018-09-10T07:14:15.271Z,942.9
2018-09-10T07:15:15.197Z,943.3
2018-09-10T07:16:15.133Z,943.3
2018-09-10T07:17:15.062Z,943.3
2018-09-10T07:18:14.976Z,943.3
2018-09-10T07:19:14.917Z,943.3
2018-09-10T07:20:14.830Z,943.3
2018-09-10T07:21:14.753Z,943.3
2018-09-10T07:22:15.157Z,943.3
2018-09-10T07:23:15.074Z,943.3
2018-09-10T07:24:14.993Z,943.3
2018-09-10T07:25:14.915Z,943.3
2018-09-10T07:26:14.821Z,943.3
2018-09-10T07:27:14.808Z,943.3
2018-09-10T07:28:14.813Z,943.2
2018-09-10T07:29:14.746Z,943.2
2018-09-10T07:30:14.697Z,943.4
2018-09-10T07:31:14.618Z,943.3
2018-09-10T07:32:14.976Z,942.9
2018-09-10T07:33:14.891Z,943.3
2018-09-10T07:34:14.789Z,942.9
2018-09-10T07:35:14.683Z,943
2018-09-10T07:36:14.596Z,942.9
2018-09-10T07:37:14.734Z,943.3
2018-09-10T07:38:14.653Z,943.3
2018-09-10T07:39:17.365Z,943.3
2018-09-10T07:40:17.290Z,942.9
2018-09-10T07:41:17.455Z,943.2
2018-09-10T07:42:17.860Z,943.3
2018-09-10T07:43:17.783Z,943.3
2018-09-10T07:44:18.304Z,943.3
2018-09-10T07:45:18.275Z,943.3
2018-09-10T07:46:18.189Z,943.3
2018-09-10T07:47:18.129Z,943.3
2018-09-10T07:48:18.059Z,943
2018-09-10T07:49:17.987Z,943.4
2018-09-10T07:50:18.125Z,943.3
2018-09-10T07:51:18.061Z,943.4
2018-09-10T07:52:19.497Z,943.5
2018-09-10T07:53:19.420Z,943
2018-09-10T07:54:19.517Z,943.5
2018-09-10T07:55:19.430Z,943.4
2018-09-10T07:56:19.356Z,943.1
2018-09-10T07:57:19.319Z,943.5
2018-09-10T07:58:19.698Z,943.5
2018-09-10T07:59:19.618Z,943.5
2018-09-10T08:00:19.538Z,943.5
2018-09-10T08:01:19.459Z,943.5
2018-09-10T08:02:19.873Z,943.6
2018-09-10T08:03:19.787Z,943.7
2018-09-10T08:04:19.944Z,943.6
2018-09-10T08:05:19.864Z,943.6
2018-09-10T08:06:20.040Z,943.6
2018-09-10T08:07:19.981Z,943.6
2018-09-10T08:08:20.246Z,943.3
2018-09-10T08:09:21.378Z,943.6
2018-09-10T08:10:21.491Z,943.3
2018-09-10T08:11:21.461Z,943.6
2018-09-10T08:12:21.845Z,943.7
2018-09-10T08:13:21.806Z,943.5
2018-09-10T08:14:21.737Z,940.4
2018-09-10T08:15:21.871Z,943.6
2018-09-10T08:16:21.792Z,943.6
2018-09-10T08:17:21.722Z,943.6
2018-09-10T08:18:21.654Z,943.2
2018-09-10T08:19:21.580Z,943.6
2018-09-10T08:20:21.532Z,943.6
2018-09-10T08:21:22.481Z,943.3
2018-09-10T08:22:22.869Z,943.7
2018-09-10T08:23:22.848Z,943.6
2018-09-10T08:24:23.536Z,943.6
2018-09-10T08:25:23.475Z,943.6
2018-09-10T08:26:23.416Z,943.7
2018-09-10T08:27:24.366Z,943.2
2018-09-10T08:28:24.318Z,943.6
2018-09-10T08:29:24.227Z,943.7
2018-09-10T08:30:24.537Z,943.7
2018-09-10T08:31:24.563Z,943.7
2018-09-10T08:32:24.907Z,943.7
2018-09-10T08:33:24.847Z,943.7
2018-09-10T08:34:24.820Z,943.7
2018-09-10T08:35:24.762Z,943.7
2018-09-10T08:36:24.671Z,943.8
2018-09-10T08:37:27.496Z,943.8
2018-09-10T08:38:27.400Z,943.7
2018-09-10T08:39:27.586Z,943.8
2018-09-10T08:40:27.500Z,943.8
2018-09-10T08:41:28.401Z,943.7
2018-09-10T08:42:28.783Z,943.4
2018-09-10T08:43:28.712Z,943.8
2018-09-10T08:44:28.641Z,943.8
2018-09-10T08:45:28.575Z,943.8
2018-09-10T08:46:28.486Z,943.8
2018-09-10T08:47:28.395Z,943.8
2018-09-10T08:48:28.578Z,943.8
2018-09-10T08:49:28.487Z,943.8
2018-09-10T08:50:28.465Z,943.7
2018-09-10T08:51:28.368Z,943.7
2018-09-10T08:52:28.800Z,943.8
2018-09-10T08:53:28.709Z,943.8
2018-09-10T08:54:31.006Z,943.8
2018-09-10T08:55:32.729Z,943.4
2018-09-10T08:56:32.769Z,943.5
2018-09-10T08:57:32.680Z,943.5
2018-09-10T08:58:32.881Z,943.5
2018-09-10T08:59:32.798Z,943.8
2018-09-10T09:00:33.678Z,943.8
2018-09-10T09:01:33.661Z,943.8
2018-09-10T09:02:35.308Z,943.8
2018-09-10T09:03:37.796Z,943.8
2018-09-10T09:04:37.707Z,943.8
2018-09-10T09:05:46.331Z,943.8
2018-09-10T09:06:46.272Z,943.8
2018-09-10T09:07:46.195Z,943.7
2018-09-10T09:08:46.191Z,943.8
2018-09-10T09:09:46.113Z,943.7
2018-09-10T09:10:46.059Z,943.7
2018-09-10T09:11:45.973Z,943.3
2018-09-10T09:12:46.360Z,943.7
2018-09-10T09:13:46.340Z,943.7
2018-09-10T09:14:46.241Z,943.7
2018-09-10T09:15:46.180Z,943.7
2018-09-10T09:16:47.109Z,943.7
2018-09-10T09:17:47.271Z,941
2018-09-10T09:18:47.227Z,943.7
2018-09-10T09:19:47.389Z,943.6
2018-09-10T09:20:47.351Z,943.6
2018-09-10T09:21:47.273Z,943.3
2018-09-10T09:22:47.718Z,942.9
2018-09-10T09:23:47.649Z,943.5
2018-09-10T09:24:47.804Z,943.2
2018-09-10T09:25:47.748Z,943.5
2018-09-10T09:26:47.692Z,943.5
2018-09-10T09:27:48.269Z,943.6
2018-09-10T09:28:48.181Z,943.6
2018-09-10T09:29:48.568Z,943.7
2018-09-10T09:30:48.511Z,943.6
2018-09-10T09:31:48.691Z,940.1
2018-09-10T09:32:52.070Z,943.6
2018-09-10T09:33:51.986Z,940.2
2018-09-10T09:34:52.158Z,943.7
2018-09-10T09:35:52.086Z,943.3
2018-09-10T09:36:54.911Z,943.7
2018-09-10T09:37:54.854Z,943.6
2018-09-10T09:38:54.772Z,943.3
2018-09-10T09:39:57.684Z,943.7
2018-09-10T09:40:57.613Z,943.7
2018-09-10T09:41:57.804Z,943.7
2018-09-10T09:42:58.196Z,942
2018-09-10T09:44:04.177Z,943.7
2018-09-10T09:45:04.082Z,943.7
2018-09-10T09:46:04.250Z,943.8
2018-09-10T09:47:04.182Z,943.7
2018-09-10T09:48:04.131Z,943.7
2018-09-10T09:49:04.048Z,943.7
2018-09-10T09:50:03.977Z,942.6
2018-09-10T09:51:05.242Z,943.7
2018-09-10T09:52:05.177Z,943.7
2018-09-10T09:53:06.595Z,943.7
2018-09-10T09:54:06.589Z,943.7
2018-09-10T09:55:06.513Z,943.6
2018-09-10T09:56:06.696Z,943.6
2018-09-10T09:57:09.609Z,943.7
2018-09-10T09:58:09.511Z,943.7
2018-09-10T09:59:09.425Z,943.6
2018-09-10T10:00:09.367Z,940.5
2018-09-10T10:01:10.305Z,943.6
2018-09-10T10:02:10.223Z,943.6
2018-09-10T10:03:12.782Z,943.6
2018-09-10T10:04:13.392Z,943.7
2018-09-10T10:05:13.375Z,943.7
2018-09-10T10:06:13.290Z,943.2
2018-09-10T10:07:13.256Z,943.7
2018-09-10T10:08:13.160Z,943.6
2018-09-10T10:09:13.080Z,943.5
2018-09-10T10:10:13.629Z,943.6
2018-09-10T10:11:14.030Z,943.6
2018-09-10T10:12:14.860Z,943.5
2018-09-10T10:13:15.480Z,943.6
2018-09-10T10:14:15.401Z,941.4
2018-09-10T10:15:15.337Z,943.5
2018-09-10T10:16:15.489Z,943.5
2018-09-10T10:17:15.403Z,943.4
2018-09-10T10:18:15.561Z,943.5
2018-09-10T10:19:15.466Z,943.5
2018-09-10T10:20:15.390Z,943.5
2018-09-10T10:21:15.339Z,943.1
2018-09-10T10:22:15.249Z,943.1
2018-09-10T10:23:15.614Z,943.4
2018-09-10T10:24:16.524Z,943.4
2018-09-10T10:25:16.432Z,943.4
2018-09-10T10:26:16.635Z,943.5
2018-09-10T10:27:16.550Z,943.5
2018-09-10T10:28:17.236Z,943.5
2018-09-10T10:29:17.470Z,943.4
2018-09-10T10:30:17.390Z,943.5
2018-09-10T10:31:17.351Z,943.2
2018-09-10T10:32:17.330Z,943.5
2018-09-10T10:33:17.692Z,943.5
2018-09-10T10:34:17.822Z,943.5
2018-09-10T10:35:17.738Z,943.5
2018-09-10T10:36:17.664Z,943.5
2018-09-10T10:37:17.632Z,943.4
2018-09-10T10:38:17.543Z,943.5
2018-09-10T10:39:17.885Z,943.5
2018-09-10T10:40:18.888Z,943.5
2018-09-10T10:41:18.797Z,943.4
2018-09-10T10:42:18.714Z,943.4
2018-09-10T10:43:19.130Z,943.4
2018-09-10T10:44:20.022Z,943.4
2018-09-10T10:45:19.974Z,943.4
2018-09-10T10:46:19.879Z,943.4
2018-09-10T10:47:22.926Z,943.5
2018-09-10T10:48:22.837Z,943.4
2018-09-10T10:49:22.791Z,943.5
2018-09-10T10:50:22.754Z,943.5
2018-09-10T10:51:22.671Z,943.4
2018-09-10T10:52:22.607Z,943.5
2018-09-10T10:53:23.200Z,943.5
2018-09-10T10:54:23.177Z,943.4
2018-09-10T10:55:23.088Z,943.5
2018-09-10T10:56:23.096Z,943.5
2018-09-10T10:57:24.114Z,943.1
2018-09-10T10:58:24.031Z,943.5
2018-09-10T10:59:23.944Z,943.5
2018-09-10T11:00:23.868Z,943.4
2018-09-10T11:01:23.824Z,943.5
2018-09-10T11:02:23.740Z,943.5
2018-09-10T11:03:24.122Z,943.4
2018-09-10T11:04:27.408Z,943.1
2018-09-10T11:05:27.317Z,943
2018-09-10T11:06:27.233Z,943.2
2018-09-10T11:07:27.197Z,943.5
2018-09-10T11:08:27.118Z,943.5
2018-09-10T11:09:27.055Z,943.4
2018-09-10T11:10:26.975Z,943.5
2018-09-10T11:11:26.885Z,943.4
2018-09-10T11:12:26.837Z,943.4
2018-09-10T11:13:27.232Z,943.4
2018-09-10T11:14:27.145Z,943.4
2018-09-10T11:15:28.098Z,943.1
2018-09-10T11:16:28.139Z,943.5
2018-09-10T11:17:28.068Z,943.5
2018-09-10T11:18:27.997Z,943.5
2018-09-10T11:19:28.935Z,943.1
2018-09-10T11:20:31.849Z,943.4
2018-09-10T11:21:31.768Z,943.4
2018-09-10T11:22:34.655Z,943.4
2018-09-10T11:23:35.076Z,943.4
2018-09-10T11:24:35.006Z,943.4
2018-09-10T11:25:34.970Z,943.4
2018-09-10T11:26:34.897Z,943.4
2018-09-10T11:27:35.099Z,943.4
2018-09-10T11:28:35.046Z,943.4
2018-09-10T11:29:35.027Z,943.4
2018-09-10T11:30:34.945Z,943.4
2018-09-10T11:31:37.625Z,943.4
2018-09-10T11:32:37.540Z,943
2018-09-10T11:33:40.918Z,943
2018-09-10T11:34:41.390Z,943.4
2018-09-10T11:35:41.423Z,943.5
2018-09-10T11:36:41.353Z,943
2018-09-10T11:37:41.267Z,943
2018-09-10T11:38:41.246Z,943.3
2018-09-10T11:39:41.168Z,943.1
2018-09-10T11:40:41.311Z,943.5
2018-09-10T11:41:41.213Z,943.4
2018-09-10T11:42:41.115Z,943.4
2018-09-10T11:43:41.451Z,943.3
2018-09-10T11:44:41.397Z,943.3
2018-09-10T11:45:41.343Z,943.3
2018-09-10T11:46:42.077Z,943.4
2018-09-10T11:47:42.022Z,943.4
2018-09-10T11:48:41.947Z,943
2018-09-10T11:49:41.928Z,943.3
2018-09-10T11:50:44.877Z,943.3
2018-09-10T11:51:44.806Z,943.5
2018-09-10T11:52:44.733Z,943.4
2018-09-10T11:53:45.610Z,943.3
2018-09-10T11:54:47.560Z,943.4
2018-09-10T11:55:48.378Z,943.3
2018-09-10T11:56:48.307Z,943.3
2018-09-10T11:57:48.212Z,943.3
2018-09-10T11:58:48.133Z,943.3
2018-09-10T11:59:48.070Z,943
2018-09-10T12:00:47.991Z,943.4
2018-09-10T12:01:51.597Z,943.4
2018-09-10T12:02:54.510Z,943.4
2018-09-10T12:03:55.869Z,943.4
2018-09-10T12:04:55.808Z,941.9
2018-09-10T12:05:58.438Z,941.3
2018-09-10T12:06:58.353Z,943.4
2018-09-10T12:07:58.265Z,943
2018-09-10T12:08:58.209Z,943.3
2018-09-10T12:09:58.149Z,943.3
2018-09-10T12:10:58.091Z,939.8
2018-09-10T12:11:58.031Z,943.3
2018-09-10T12:12:57.979Z,943.2
2018-09-10T12:13:58.694Z,943.3
2018-09-10T12:14:58.660Z,942.8
2018-09-10T12:15:59.610Z,943.2
2018-09-10T12:16:59.592Z,943.3
2018-09-10T12:18:00.501Z,943.2
2018-09-10T12:19:00.427Z,943.2
2018-09-10T12:20:00.385Z,943.3
2018-09-10T12:21:00.312Z,943.3
2018-09-10T12:22:02.886Z,942.9
2018-09-10T12:23:02.795Z,943.4
2018-09-10T12:24:03.134Z,943.3
2018-09-10T12:25:03.067Z,943.4
2018-09-10T12:26:03.988Z,943.3
2018-09-10T12:27:04.127Z,943
2018-09-10T12:28:04.035Z,943
2018-09-10T12:29:04.011Z,943.4
2018-09-10T12:30:06.857Z,943.4
2018-09-10T12:31:06.788Z,943.5
2018-09-10T12:32:06.693Z,943.3
2018-09-10T12:33:06.630Z,943.1
2018-09-10T12:34:10.040Z,943.5
2018-09-10T12:35:10.008Z,943.5
2018-09-10T12:36:09.911Z,943.5
2018-09-10T12:37:09.865Z,943.5
2018-09-10T12:38:09.780Z,943.4
2018-09-10T12:39:09.690Z,943.5
2018-09-10T12:40:16.568Z,943.4
2018-09-10T12:41:16.480Z,943.4
2018-09-10T12:42:16.460Z,943.5
2018-09-10T12:43:16.382Z,943.4
2018-09-10T12:44:16.768Z,943.3
2018-09-10T12:45:16.727Z,943.3
2018-09-10T12:46:16.774Z,943.4
2018-09-10T12:47:16.700Z,943.3
2018-09-10T12:48:16.674Z,943
2018-09-10T12:49:16.657Z,943.4
2018-09-10T12:50:16.615Z,943.5
2018-09-10T12:51:16.587Z,943.1
2018-09-10T12:52:16.514Z,943.5
2018-09-10T12:53:16.432Z,943.4
2018-09-10T12:54:16.799Z,943.5
2018-09-10T12:55:16.718Z,943.1
2018-09-10T12:56:16.693Z,943.5
2018-09-10T12:57:16.636Z,942.8
2018-09-10T12:58:16.530Z,943
2018-09-10T12:59:16.476Z,943.3
2018-09-10T13:00:16.386Z,943.4
2018-09-10T13:01:16.542Z,943.4
2018-09-10T13:02:16.475Z,943.4